createdAt,value
2022-08-09T00:01:05.356Z,102374.59
2022-08-09T00:04:03.732Z,102372.75
2022-08-09T00:06:24.990Z,102375.75
2022-08-09T00:08:52.072Z,102374.41
2022-08-09T00:11:24.895Z,102373.06
2022-08-09T00:13:54.099Z,102369.03
2022-08-09T00:16:26.364Z,102375.09
2022-08-09T00:19:03.254Z,102373.03
2022-08-09T00:21:37.612Z,102374.72
2022-08-09T00:24:09.659Z,102364.66
2022-08-09T00:26:36.739Z,102366.94
2022-08-09T00:29:03.560Z,102367.59
2022-08-09T00:32:00.665Z,102363.72
2022-08-09T00:34:25.254Z,102370.44
2022-08-09T00:36:53.880Z,102373.75
2022-08-09T00:40:13.334Z,102366.53
2022-08-09T00:44:10.445Z,102369.72
2022-08-09T00:44:53.746Z,102370.88
2022-08-09T00:47:20.235Z,102370.34
2022-08-09T00:49:55.245Z,102372.53
2022-08-09T00:52:30.000Z,102369.47
2022-08-09T00:54:57.552Z,102368.47
2022-08-09T00:57:24.693Z,102364.78
2022-08-09T01:00:00.719Z,102372.69
2022-08-09T01:02:29.984Z,102368.91
2022-08-09T01:05:01.204Z,102372.22
2022-08-09T01:07:37.705Z,102375.06
2022-08-09T01:10:25.952Z,102374.38
2022-08-09T01:12:56.619Z,102376.53
2022-08-09T01:15:25.508Z,102365.13
2022-08-09T01:17:57.600Z,102378.00
2022-08-09T01:20:29.100Z,102373.69
2022-08-09T01:23:04.799Z,102374.13
2022-08-09T01:26:05.422Z,102376.63
2022-08-09T01:28:35.213Z,102379.28
2022-08-09T01:31:06.300Z,102384.84
2022-08-09T01:33:36.923Z,102384.44
2022-08-09T01:36:04.943Z,102377.09
2022-08-09T01:38:33.724Z,102382.06
2022-08-09T01:41:05.053Z,102376.88
2022-08-09T01:43:47.962Z,102374.81
2022-08-09T01:46:25.055Z,102376.34
2022-08-09T01:48:54.256Z,102378.19
2022-08-09T01:51:22.749Z,102374.38
2022-08-09T01:53:49.923Z,102367.97
2022-08-09T01:56:21.075Z,102373.19
2022-08-09T01:58:50.255Z,102370.66
2022-08-09T02:01:18.782Z,102370.84
2022-08-09T02:03:45.860Z,102364.94
2022-08-09T02:06:14.851Z,102375.66
2022-08-09T02:08:58.525Z,102363.69
2022-08-09T02:11:41.956Z,102357.69
2022-08-09T02:14:11.083Z,102370.06
2022-08-09T02:16:59.040Z,102367.56
2022-08-09T02:19:43.225Z,102367.88
2022-08-09T02:22:13.387Z,102373.38
2022-08-09T02:24:41.872Z,102369.31
2022-08-09T02:27:09.619Z,102372.16
2022-08-09T02:29:44.982Z,102367.25
2022-08-09T02:32:16.706Z,102369.38
2022-08-09T02:34:55.618Z,102367.03
2022-08-09T02:37:24.825Z,102368.69
2022-08-09T02:40:03.136Z,102363.81
2022-08-09T02:42:31.241Z,102369.31
2022-08-09T02:45:02.286Z,102367.28
2022-08-09T02:47:33.704Z,102367.28
2022-08-09T02:50:15.826Z,102368.41
2022-08-09T02:52:46.456Z,102358.00
2022-08-09T02:55:20.607Z,102365.66
2022-08-09T02:58:00.646Z,102371.53
2022-08-09T03:00:39.544Z,102371.81
2022-08-09T03:04:05.736Z,102370.63
2022-08-09T03:06:10.254Z,102371.69
2022-08-09T03:08:37.374Z,102365.25
2022-08-09T03:11:03.986Z,102356.31
2022-08-09T03:13:43.627Z,102359.16
2022-08-09T03:16:19.035Z,102360.72
2022-08-09T03:18:46.343Z,102356.34
2022-08-09T03:21:18.826Z,102361.00
2022-08-09T03:24:04.327Z,102360.72
2022-08-09T03:26:32.286Z,102369.19
2022-08-09T03:28:59.194Z,102359.59
2022-08-09T03:31:27.281Z,102381.72
2022-08-09T03:33:56.604Z,102368.09
2022-08-09T03:36:27.831Z,102370.59
2022-08-09T03:38:54.900Z,102373.47
2022-08-09T03:41:30.279Z,102375.88
2022-08-09T03:44:09.272Z,102372.50
2022-08-09T03:46:37.664Z,102373.66
2022-08-09T03:49:08.033Z,102364.94
2022-08-09T03:51:56.665Z,102370.56
2022-08-09T03:54:29.097Z,102368.50
2022-08-09T03:56:57.934Z,102377.19
2022-08-09T03:59:27.522Z,102372.56
2022-08-09T04:02:11.069Z,102373.00
2022-08-09T04:04:40.667Z,102380.06
2022-08-09T04:07:12.117Z,102370.44
2022-08-09T04:09:41.757Z,102381.13
2022-08-09T04:12:32.682Z,102372.16
2022-08-09T04:15:02.075Z,102375.28
2022-08-09T04:17:39.362Z,102371.91
2022-08-09T04:20:09.682Z,102380.91
2022-08-09T04:22:37.364Z,102395.47
2022-08-09T04:25:08.287Z,102384.91
2022-08-09T04:27:37.835Z,102391.38
2022-08-09T04:30:04.694Z,102395.03
2022-08-09T04:32:31.599Z,102390.53
2022-08-09T04:35:01.648Z,102399.56
2022-08-09T04:37:45.647Z,102391.66
2022-08-09T04:40:19.351Z,102398.84
2022-08-09T04:42:59.924Z,102403.91
2022-08-09T04:45:30.436Z,102393.94
2022-08-09T04:48:01.041Z,102398.00
2022-08-09T04:50:34.937Z,102398.84
2022-08-09T04:53:05.007Z,102404.75
2022-08-09T04:55:35.410Z,102403.78
2022-08-09T04:58:17.611Z,102403.63
2022-08-09T05:00:44.492Z,102403.16
2022-08-09T05:03:12.887Z,102402.19
2022-08-09T05:06:06.526Z,102405.28
2022-08-09T05:08:33.910Z,102415.13
2022-08-09T05:11:01.177Z,102410.50
2022-08-09T05:13:29.000Z,102414.38
2022-08-09T05:15:59.488Z,102410.59
2022-08-09T05:18:55.541Z,102412.66
2022-08-09T05:21:20.787Z,102417.44
2022-08-09T05:23:59.593Z,102407.16
2022-08-09T05:26:36.434Z,102405.59
2022-08-09T05:29:17.214Z,102413.31
2022-08-09T05:31:49.170Z,102414.56
2022-08-09T05:34:22.762Z,102412.44
2022-08-09T05:36:58.128Z,102418.75
2022-08-09T05:39:29.061Z,102417.75
2022-08-09T05:41:56.504Z,102419.44
2022-08-09T05:44:32.251Z,102416.16
2022-08-09T05:46:58.892Z,102425.66
2022-08-09T05:50:15.586Z,102416.34
2022-08-09T05:52:13.111Z,102412.34
2022-08-09T05:54:39.822Z,102423.31
2022-08-09T05:57:07.403Z,102422.41
2022-08-09T05:59:39.188Z,102430.81
2022-08-09T06:02:05.512Z,102423.00
2022-08-09T06:04:34.957Z,102423.06
2022-08-09T06:07:01.564Z,102432.03
2022-08-09T06:09:55.045Z,102427.22
2022-08-09T06:12:15.519Z,102421.53
2022-08-09T06:14:43.478Z,102430.50
2022-08-09T06:17:10.234Z,102430.69
2022-08-09T06:19:36.675Z,102429.09
2022-08-09T06:22:03.493Z,102431.16
2022-08-09T06:24:31.251Z,102436.75
2022-08-09T06:26:57.639Z,102438.13
2022-08-09T06:29:24.401Z,102444.03
2022-08-09T06:32:08.557Z,102437.72
2022-08-09T06:34:39.430Z,102448.13
2022-08-09T06:37:06.596Z,102445.50
2022-08-09T06:39:49.007Z,102451.91
2022-08-09T06:42:24.440Z,102448.44
2022-08-09T06:44:54.071Z,102441.56
2022-08-09T06:47:21.158Z,102445.97
2022-08-09T06:50:14.606Z,102446.66
2022-08-09T06:52:34.311Z,102450.38
2022-08-09T06:55:12.577Z,102450.44
2022-08-09T06:58:01.228Z,102455.81
2022-08-09T07:00:52.034Z,102457.34
2022-08-09T07:03:11.782Z,102460.22
2022-08-09T07:06:02.458Z,102457.59
2022-08-09T07:08:24.813Z,102455.28
2022-08-09T07:10:52.787Z,102452.41
2022-08-09T07:13:28.167Z,102453.28
2022-08-09T07:16:42.831Z,102456.97
2022-08-09T07:18:42.188Z,102462.03
2022-08-09T07:21:09.312Z,102461.22
2022-08-09T07:23:36.567Z,102454.84
2022-08-09T07:26:24.225Z,102464.59
2022-08-09T07:29:08.541Z,102465.13
2022-08-09T07:31:38.642Z,102465.59
2022-08-09T07:34:15.038Z,102464.78
2022-08-09T07:36:47.472Z,102465.28
2022-08-09T07:39:20.639Z,102461.44
2022-08-09T07:42:01.428Z,102468.34
2022-08-09T07:44:33.107Z,102481.28
2022-08-09T07:47:15.752Z,102482.44
2022-08-09T07:50:04.694Z,102479.56
2022-08-09T07:52:29.387Z,102489.81
2022-08-09T07:54:56.612Z,102479.19
2022-08-09T07:57:33.813Z,102484.22
2022-08-09T08:00:02.865Z,102475.63
2022-08-09T08:02:30.447Z,102476.94
2022-08-09T08:04:56.851Z,102476.09
2022-08-09T08:08:43.055Z,102467.66
2022-08-09T08:10:11.482Z,102461.31
2022-08-09T08:12:43.158Z,102464.47
2022-08-09T08:15:11.802Z,102467.78
2022-08-09T08:17:53.350Z,102476.19
2022-08-09T08:20:29.217Z,102477.31
2022-08-09T08:23:03.735Z,102476.22
2022-08-09T08:25:43.902Z,102479.34
2022-08-09T08:28:14.136Z,102487.72
2022-08-09T08:30:41.381Z,102475.13
2022-08-09T08:33:11.774Z,102484.19
2022-08-09T08:35:58.743Z,102490.06
2022-08-09T08:38:25.165Z,102476.13
2022-08-09T08:40:52.826Z,102475.38
2022-08-09T08:43:20.499Z,102476.22
2022-08-09T08:45:53.290Z,102488.81
2022-08-09T08:48:21.610Z,102481.00
2022-08-09T08:50:49.296Z,102478.59
2022-08-09T08:53:22.051Z,102479.69
2022-08-09T08:55:48.791Z,102479.59
2022-08-09T08:58:27.126Z,102482.28
2022-08-09T09:00:56.380Z,102490.53
2022-08-09T09:03:33.304Z,102486.75
2022-08-09T09:06:05.400Z,102485.50
2022-08-09T09:08:37.842Z,102480.69
2022-08-09T09:11:08.490Z,102492.88
2022-08-09T09:13:55.429Z,102489.69
2022-08-09T09:16:30.457Z,102497.31
2022-08-09T09:19:21.586Z,102494.19
2022-08-09T09:22:03.946Z,102487.59
2022-08-09T09:24:32.783Z,102488.78
2022-08-09T09:27:01.613Z,102493.25
2022-08-09T09:29:46.060Z,102493.75
2022-08-09T09:32:20.363Z,102503.22
2022-08-09T09:35:02.479Z,102501.03
2022-08-09T09:37:31.851Z,102500.19
2022-08-09T09:39:59.602Z,102498.41
2022-08-09T09:42:29.798Z,102498.88
2022-08-09T09:44:59.704Z,102497.88
2022-08-09T09:47:28.295Z,102499.22
2022-08-09T09:50:13.208Z,102494.78
2022-08-09T09:52:52.349Z,102500.50
2022-08-09T09:55:28.130Z,102499.88
2022-08-09T09:58:03.628Z,102499.25
2022-08-09T10:00:34.497Z,102501.59
2022-08-09T10:03:00.952Z,102505.97
2022-08-09T10:06:00.731Z,102505.56
2022-08-09T10:08:30.510Z,102496.44
2022-08-09T10:10:58.505Z,102488.00
2022-08-09T10:13:45.059Z,102494.94
2022-08-09T10:16:56.522Z,102500.47
2022-08-09T10:19:00.287Z,102495.06
2022-08-09T10:21:27.030Z,102490.22
2022-08-09T10:23:53.578Z,102494.22
2022-08-09T10:26:20.338Z,102490.28
2022-08-09T10:29:35.902Z,102492.22
2022-08-09T10:34:33.955Z,102487.22
2022-08-09T10:37:02.253Z,102479.31
2022-08-09T10:39:29.710Z,102476.00
2022-08-09T10:41:56.114Z,102480.41
2022-08-09T10:44:24.985Z,102482.13
2022-08-09T10:48:12.312Z,102482.75
2022-08-09T10:50:15.038Z,102478.56
2022-08-09T10:52:56.213Z,102481.09
2022-08-09T10:55:23.578Z,102470.03
2022-08-09T10:57:51.990Z,102468.16
2022-08-09T11:00:32.081Z,102461.00
2022-08-09T11:03:15.717Z,102467.31
2022-08-09T11:06:15.398Z,102470.84
2022-08-09T11:08:47.297Z,102460.81
2022-08-09T11:11:14.877Z,102453.06
2022-08-09T11:13:50.530Z,102453.69
2022-08-09T11:16:37.404Z,102450.13
2022-08-09T11:19:09.788Z,102456.00
2022-08-09T11:21:55.240Z,102468.75
2022-08-09T11:24:57.980Z,102455.56
2022-08-09T11:28:03.040Z,102450.72
2022-08-09T11:30:33.363Z,102450.00
2022-08-09T11:33:03.051Z,102449.94
2022-08-09T11:35:35.266Z,102447.84
2022-08-09T11:38:17.575Z,102449.88
2022-08-09T11:40:45.231Z,102444.00
2022-08-09T11:43:16.555Z,102453.41
2022-08-09T11:45:53.491Z,102443.16
2022-08-09T11:48:26.242Z,102434.88
2022-08-09T11:52:36.732Z,102440.44
2022-08-09T11:53:58.656Z,102426.31
2022-08-09T11:56:41.904Z,102435.75
2022-08-09T11:59:10.762Z,102439.09
2022-08-09T12:02:18.086Z,102434.28
2022-08-09T12:04:28.752Z,102421.06
2022-08-09T12:07:03.850Z,102425.34
2022-08-09T12:09:34.392Z,102425.34
2022-08-09T12:12:04.113Z,102420.03
2022-08-09T12:14:36.748Z,102419.38
2022-08-09T12:17:03.938Z,102412.09
2022-08-09T12:19:50.718Z,102413.78
2022-08-09T12:22:17.919Z,102411.81
2022-08-09T12:24:45.276Z,102402.91
2022-08-09T12:28:58.818Z,102405.19
2022-08-09T12:30:35.758Z,102408.22
2022-08-09T12:33:00.651Z,102403.50
2022-08-09T12:35:26.995Z,102400.56
2022-08-09T12:37:54.174Z,102404.91
2022-08-09T12:40:21.320Z,102398.78
2022-08-09T12:42:51.091Z,102396.44
2022-08-09T12:45:33.295Z,102390.91
2022-08-09T12:48:01.741Z,102391.50
2022-08-09T12:50:28.572Z,102386.66
2022-08-09T12:53:17.670Z,102385.16
2022-08-09T12:56:14.002Z,102390.44
2022-08-09T12:58:28.586Z,102373.47
2022-08-09T13:00:57.723Z,102382.63
2022-08-09T13:03:40.885Z,102380.28
2022-08-09T13:06:23.732Z,102375.19
2022-08-09T13:08:57.431Z,102365.94
2022-08-09T13:11:28.287Z,102373.53
2022-08-09T13:14:11.958Z,102367.91
2022-08-09T13:16:45.937Z,102372.25
2022-08-09T13:19:22.264Z,102359.50
2022-08-09T13:22:37.279Z,102364.56
2022-08-09T13:24:44.618Z,102359.31
2022-08-09T13:27:23.728Z,102367.09
2022-08-09T13:30:03.570Z,102360.09
2022-08-09T13:32:45.932Z,102361.47
2022-08-09T13:35:16.479Z,102356.09
2022-08-09T13:37:52.412Z,102352.38
2022-08-09T13:41:52.251Z,102359.84
2022-08-09T13:43:09.526Z,102355.22
2022-08-09T13:46:44.705Z,102345.78
2022-08-09T13:48:24.509Z,102348.69
2022-08-09T13:50:51.041Z,102349.50
2022-08-09T13:53:17.364Z,102339.34
2022-08-09T13:55:44.890Z,102338.88
2022-08-09T13:58:14.277Z,102328.59
2022-08-09T14:00:49.910Z,102331.41
2022-08-09T14:04:03.540Z,102329.50
2022-08-09T14:06:14.671Z,102328.66
2022-08-09T14:08:51.823Z,102331.63
2022-08-09T14:11:18.983Z,102327.00
2022-08-09T14:14:21.943Z,102326.16
2022-08-09T14:16:32.744Z,102338.97
2022-08-09T14:19:00.998Z,102331.63
2022-08-09T14:21:31.993Z,102337.91
2022-08-09T14:24:01.275Z,102338.28
2022-08-09T14:26:36.491Z,102330.69
2022-08-09T14:29:07.566Z,102329.50
2022-08-09T14:31:53.481Z,102331.41
2022-08-09T14:34:32.261Z,102327.41
2022-08-09T14:37:01.583Z,102320.34
2022-08-09T14:39:47.454Z,102318.91
2022-08-09T14:42:30.657Z,102313.00
2022-08-09T14:45:00.835Z,102317.47
2022-08-09T14:47:41.275Z,102315.19
2022-08-09T14:50:16.263Z,102315.78
2022-08-09T14:52:49.994Z,102317.69
2022-08-09T14:55:20.409Z,102315.97
2022-08-09T14:57:47.383Z,102311.47
2022-08-09T15:00:15.266Z,102311.47
2022-08-09T15:02:41.599Z,102312.19
2022-08-09T15:05:08.341Z,102308.97
2022-08-09T15:07:35.472Z,102316.31
2022-08-09T15:10:11.211Z,102312.53
2022-08-09T15:12:40.748Z,102297.94
2022-08-09T15:15:11.486Z,102317.31
2022-08-09T15:17:42.611Z,102311.72
2022-08-09T15:20:15.263Z,102312.09
2022-08-09T15:22:47.081Z,102308.91
2022-08-09T15:25:15.008Z,102306.56
2022-08-09T15:28:01.679Z,102308.59
2022-08-09T15:30:56.930Z,102301.13
2022-08-09T15:33:23.215Z,102300.50
2022-08-09T15:36:01.410Z,102304.06
2022-08-09T15:38:28.614Z,102302.78
2022-08-09T15:40:56.399Z,102291.72
2022-08-09T15:43:24.835Z,102298.31
2022-08-09T15:46:28.242Z,102296.72
2022-08-09T15:49:20.463Z,102291.03
2022-08-09T15:52:02.164Z,102287.09
2022-08-09T15:54:30.113Z,102284.75
2022-08-09T15:56:59.214Z,102290.66
2022-08-09T15:59:26.803Z,102287.72
2022-08-09T16:02:03.693Z,102283.53
2022-08-09T16:04:32.026Z,102279.09
2022-08-09T16:07:01.835Z,102284.38
2022-08-09T16:09:51.384Z,102286.13
2022-08-09T16:12:16.095Z,102279.66
2022-08-09T16:14:42.776Z,102279.59
2022-08-09T16:17:12.170Z,102276.69
2022-08-09T16:19:48.915Z,102281.13
2022-08-09T16:22:16.079Z,102278.19
2022-08-09T16:24:42.402Z,102275.53
2022-08-09T16:27:08.711Z,102273.66
2022-08-09T16:29:50.707Z,102274.47
2022-08-09T16:32:35.219Z,102275.31
2022-08-09T16:35:02.473Z,102280.81
2022-08-09T16:37:53.640Z,102278.56
2022-08-09T16:40:30.056Z,102282.94
2022-08-09T16:43:02.687Z,102268.09
2022-08-09T16:45:30.524Z,102275.03
2022-08-09T16:48:42.196Z,102271.25
2022-08-09T16:50:58.742Z,102275.44
2022-08-09T16:53:32.385Z,102275.50
2022-08-09T16:56:06.075Z,102272.31
2022-08-09T16:58:36.765Z,102270.06
2022-08-09T17:01:04.997Z,102262.47
2022-08-09T17:03:31.387Z,102277.41
2022-08-09T17:06:09.252Z,102270.50
2022-08-09T17:08:58.163Z,102269.06
2022-08-09T17:11:37.684Z,102271.25
2022-08-09T17:14:08.627Z,102270.53
2022-08-09T17:16:54.523Z,102272.41
2022-08-09T17:19:21.175Z,102271.66
2022-08-09T17:21:47.523Z,102269.22
2022-08-09T17:24:27.223Z,102264.50
2022-08-09T17:26:54.890Z,102266.19
2022-08-09T17:29:21.217Z,102259.50
2022-08-09T17:31:49.239Z,102268.94
2022-08-09T17:34:59.655Z,102264.97
2022-08-09T17:37:03.727Z,102267.13
2022-08-09T17:39:48.238Z,102265.78
2022-08-09T17:42:51.363Z,102270.06
2022-08-09T17:45:03.495Z,102274.06
2022-08-09T17:47:32.949Z,102271.44
2022-08-09T17:50:25.047Z,102278.00
2022-08-09T17:53:04.741Z,102275.53
2022-08-09T17:55:49.643Z,102275.16
2022-08-09T17:58:17.569Z,102279.13
2022-08-09T18:00:47.972Z,102277.47
2022-08-09T18:03:15.068Z,102280.19
2022-08-09T18:05:45.792Z,102280.00
2022-08-09T18:08:19.460Z,102274.81
2022-08-09T18:11:01.013Z,102282.34
2022-08-09T18:13:43.683Z,102280.97
2022-08-09T18:16:16.431Z,102282.91
2022-08-09T18:18:49.092Z,102286.59
2022-08-09T18:21:23.662Z,102286.06
2022-08-09T18:24:11.406Z,102286.47
2022-08-09T18:26:37.931Z,102285.13
2022-08-09T18:30:39.811Z,102292.31
2022-08-09T18:31:55.153Z,102289.47
2022-08-09T18:34:24.106Z,102292.03
2022-08-09T18:36:53.459Z,102291.66
2022-08-09T18:39:20.066Z,102296.09
2022-08-09T18:41:53.130Z,102293.19
2022-08-09T18:44:20.166Z,102299.28
2022-08-09T18:47:05.171Z,102299.28
2022-08-09T18:49:43.690Z,102314.78
2022-08-09T18:52:16.708Z,102307.28
2022-08-09T18:54:49.566Z,102302.66
2022-08-09T18:57:19.435Z,102303.09
2022-08-09T18:59:51.528Z,102300.34
2022-08-09T19:02:31.678Z,102301.41
2022-08-09T19:05:04.428Z,102312.03
2022-08-09T19:07:59.309Z,102299.94
2022-08-09T19:10:37.258Z,102312.03
2022-08-09T19:13:22.368Z,102309.72
2022-08-09T19:15:51.622Z,102312.00
2022-08-09T19:18:33.326Z,102308.22
2022-08-09T19:21:03.231Z,102319.25
2022-08-09T19:24:36.191Z,102316.31
2022-08-09T19:26:19.285Z,102321.50
2022-08-09T19:28:55.619Z,102312.50
2022-08-09T19:31:27.734Z,102316.22
2022-08-09T19:33:57.013Z,102327.47
2022-08-09T19:36:24.372Z,102322.66
2022-08-09T19:38:58.748Z,102328.03
2022-08-09T19:41:33.091Z,102328.69
2022-08-09T19:44:03.149Z,102325.31
2022-08-09T19:46:35.007Z,102319.84
2022-08-09T19:50:06.717Z,102336.69
2022-08-09T19:51:51.697Z,102325.41
2022-08-09T19:54:24.980Z,102332.66
2022-08-09T19:56:51.523Z,102326.78
2022-08-09T19:59:39.548Z,102326.13
2022-08-09T20:02:17.148Z,102332.09
2022-08-09T20:04:55.062Z,102331.81
2022-08-09T20:07:22.507Z,102333.66
2022-08-09T20:09:50.371Z,102329.66
2022-08-09T20:12:29.802Z,102333.16
2022-08-09T20:15:04.879Z,102330.19
2022-08-09T20:17:54.511Z,102329.97
2022-08-09T20:20:21.132Z,102325.31
2022-08-09T20:22:48.454Z,102326.72
2022-08-09T20:25:22.620Z,102326.06
2022-08-09T20:27:49.328Z,102332.28
2022-08-09T20:30:17.963Z,102327.25
2022-08-09T20:32:48.230Z,102318.22
2022-08-09T20:35:18.447Z,102319.00
2022-08-09T20:38:20.416Z,102312.88
2022-08-09T20:40:32.695Z,102313.03
2022-08-09T20:43:12.296Z,102313.59
2022-08-09T20:45:59.228Z,102308.13
2022-08-09T20:48:32.047Z,102308.69
2022-08-09T20:50:58.657Z,102311.31
2022-08-09T20:53:37.768Z,102311.06
2022-08-09T20:56:08.970Z,102324.09
2022-08-09T20:58:35.727Z,102320.28
2022-08-09T21:01:32.676Z,102326.88
2022-08-09T21:05:48.781Z,102323.94
2022-08-09T21:06:36.227Z,102319.72
2022-08-09T21:09:03.178Z,102315.91
2022-08-09T21:14:17.619Z,102330.19
2022-08-09T21:16:44.065Z,102324.91
2022-08-09T21:20:17.854Z,102328.97
2022-08-09T21:21:58.582Z,102333.72
2022-08-09T21:24:28.961Z,102332.41
2022-08-09T21:27:10.428Z,102334.31
2022-08-09T21:29:49.127Z,102323.94
2022-08-09T21:32:18.704Z,102340.63
2022-08-09T21:34:49.128Z,102339.69
2022-08-09T21:37:18.252Z,102339.41
2022-08-09T21:39:45.009Z,102346.75
2022-08-09T21:42:17.688Z,102352.16
2022-08-09T21:44:54.938Z,102349.91
2022-08-09T21:47:21.246Z,102364.75
2022-08-09T21:49:47.610Z,102353.31
2022-08-09T21:52:17.415Z,102353.63
2022-08-09T21:54:49.687Z,102349.91
2022-08-09T21:57:37.866Z,102355.31
2022-08-09T22:00:13.174Z,102361.00
2022-08-09T22:02:40.190Z,102356.13
2022-08-09T22:05:22.769Z,102354.75
2022-08-09T22:07:51.791Z,102352.44
2022-08-09T22:10:23.253Z,102359.16
2022-08-09T22:12:52.314Z,102356.66
2022-08-09T22:15:18.942Z,102358.50
2022-08-09T22:17:47.308Z,102350.41
2022-08-09T22:20:16.908Z,102350.13
2022-08-09T22:22:48.611Z,102357.38
2022-08-09T22:26:07.822Z,102355.63
2022-08-09T22:28:07.153Z,102361.53
2022-08-09T22:30:33.895Z,102357.06
2022-08-09T22:33:00.220Z,102358.44
2022-08-09T22:36:02.468Z,102357.78
2022-08-09T22:38:14.761Z,102360.66
2022-08-09T22:40:49.131Z,102363.59
2022-08-09T22:44:00.566Z,102355.69
2022-08-09T22:48:14.398Z,102362.66
2022-08-09T22:49:01.776Z,102365.03
2022-08-09T22:51:31.876Z,102361.22
2022-08-09T22:54:03.079Z,102367.34
2022-08-09T22:56:33.430Z,102360.59
2022-08-09T22:59:05.655Z,102357.41
2022-08-09T23:01:48.531Z,102364.16
2022-08-09T23:04:14.923Z,102361.00
2022-08-09T23:06:42.900Z,102362.56
2022-08-09T23:09:11.595Z,102364.75
2022-08-09T23:11:37.881Z,102361.72
2022-08-09T23:14:09.872Z,102363.28
2022-08-09T23:16:36.682Z,102360.94
2022-08-09T23:19:03.226Z,102361.94
2022-08-09T23:21:33.446Z,102354.22
2022-08-09T23:24:06.489Z,102354.03
2022-08-09T23:26:33.502Z,102347.53
2022-08-09T23:28:59.832Z,102348.88
2022-08-09T23:31:27.506Z,102348.19
2022-08-09T23:33:53.818Z,102344.00
2022-08-09T23:36:20.189Z,102340.50
2022-08-09T23:38:48.773Z,102345.22
2022-08-09T23:41:28.308Z,102331.75
2022-08-09T23:43:55.860Z,102326.91
2022-08-09T23:46:22.172Z,102331.28
2022-08-09T23:48:49.804Z,102324.91
2022-08-09T23:51:16.121Z,102324.59
2022-08-09T23:53:42.445Z,102325.44
2022-08-09T23:56:08.790Z,102329.81
2022-08-09T23:58:35.374Z,102332.84
